createdAt,value
2018-01-13T00:00:34.751Z,-75
2018-01-13T00:01:34.086Z,-76
2018-01-13T00:02:34.497Z,-76
2018-01-13T00:03:34.831Z,-76
2018-01-13T00:04:34.272Z,-76
2018-01-13T00:05:34.384Z,-76
2018-01-13T00:06:35.245Z,-76
2018-01-13T00:07:34.970Z,-76
2018-01-13T00:08:35.197Z,-76
2018-01-13T00:09:34.845Z,-75
2018-01-13T00:10:34.189Z,-80
2018-01-13T00:11:34.668Z,-81
2018-01-13T00:12:34.047Z,-82
2018-01-13T00:13:34.488Z,-82
2018-01-13T00:14:36.625Z,-81
2018-01-13T00:15:34.490Z,-76
2018-01-13T00:16:33.912Z,-74
2018-01-13T00:17:34.505Z,-75
2018-01-13T00:18:33.907Z,-76
2018-01-13T00:20:50.545Z,-81
2018-01-13T00:21:34.121Z,-79
2018-01-13T00:22:34.273Z,-80
2018-01-13T00:23:32.578Z,-80
2018-01-13T00:24:34.652Z,-80
2018-01-13T00:25:34.181Z,-80
2018-01-13T00:26:32.631Z,-79
2018-01-13T00:27:34.244Z,-79
2018-01-13T00:28:32.644Z,-79
2018-01-13T00:29:34.235Z,-80
2018-01-13T00:30:34.266Z,-79
2018-01-13T00:31:32.668Z,-80
2018-01-13T00:32:34.456Z,-79
2018-01-13T00:33:33.697Z,-79
2018-01-13T00:34:34.350Z,-80
2018-01-13T00:35:34.003Z,-79
2018-01-13T00:36:34.313Z,-79
2018-01-13T00:37:33.980Z,-80
2018-01-13T00:38:34.988Z,-75
2018-01-13T00:39:39.845Z,-74
2018-01-13T00:40:34.461Z,-74
2018-01-13T00:41:34.917Z,-74
2018-01-13T00:42:34.509Z,-74
2018-01-13T00:43:34.495Z,-74
2018-01-13T00:44:34.906Z,-74
2018-01-13T00:45:34.036Z,-74
2018-01-13T00:46:34.501Z,-74
2018-01-13T00:48:50.588Z,-82
2018-01-13T00:49:34.766Z,-81
2018-01-13T00:50:35.353Z,-82
2018-01-13T00:51:35.031Z,-82
2018-01-13T00:52:33.929Z,-81
2018-01-13T00:53:34.255Z,-80
2018-01-13T00:54:34.602Z,-82
2018-01-13T00:55:35.652Z,-82
2018-01-13T00:56:34.960Z,-81
2018-01-13T00:57:34.384Z,-81
2018-01-13T00:58:35.083Z,-82
2018-01-13T00:59:34.458Z,-82
2018-01-13T01:00:34.746Z,-81
2018-01-13T01:01:35.304Z,-82
2018-01-13T01:02:34.508Z,-82
2018-01-13T01:03:34.950Z,-81
2018-01-13T01:04:34.950Z,-75
2018-01-13T01:05:34.262Z,-81
2018-01-13T01:06:34.436Z,-81
2018-01-13T01:07:34.517Z,-81
2018-01-13T01:08:34.975Z,-81
2018-01-13T01:09:34.425Z,-81
2018-01-13T01:10:34.799Z,-81
2018-01-13T01:11:34.354Z,-82
2018-01-13T01:12:34.646Z,-82
2018-01-13T01:13:33.692Z,-82
2018-01-13T01:14:34.110Z,-82
2018-01-13T01:15:34.581Z,-80
2018-01-13T01:16:34.967Z,-81
2018-01-13T01:17:34.003Z,-81
2018-01-13T01:18:34.020Z,-81
2018-01-13T01:19:34.593Z,-80
2018-01-13T01:20:35.088Z,-81
2018-01-13T01:21:34.858Z,-75
2018-01-13T01:22:34.318Z,-74
2018-01-13T01:23:34.655Z,-76
2018-01-13T01:24:35.361Z,-75
2018-01-13T01:25:34.802Z,-74
2018-01-13T01:26:34.683Z,-76
2018-01-13T01:27:33.839Z,-76
2018-01-13T01:28:34.196Z,-74
2018-01-13T01:29:34.701Z,-81
2018-01-13T01:30:35.327Z,-81
2018-01-13T01:31:34.642Z,-81
2018-01-13T01:32:34.903Z,-79
2018-01-13T01:33:34.408Z,-79
2018-01-13T01:34:34.861Z,-79
2018-01-13T01:35:34.928Z,-79
2018-01-13T01:36:34.220Z,-79
2018-01-13T01:37:34.584Z,-80
2018-01-13T01:38:34.677Z,-79
2018-01-13T01:39:33.709Z,-79
2018-01-13T01:40:33.652Z,-82
2018-01-13T01:41:35.104Z,-80
2018-01-13T01:42:35.795Z,-82
2018-01-13T01:43:33.638Z,-81
2018-01-13T01:44:34.932Z,-82
2018-01-13T01:45:34.237Z,-82
2018-01-13T01:46:34.698Z,-81
2018-01-13T01:47:34.336Z,-81
2018-01-13T01:48:34.683Z,-80
2018-01-13T01:49:35.081Z,-82
2018-01-13T01:50:34.475Z,-82
2018-01-13T01:51:36.007Z,-82
2018-01-13T01:52:34.661Z,-81
2018-01-13T01:53:34.948Z,-81
2018-01-13T01:54:34.245Z,-81
2018-01-13T01:55:34.383Z,-81
2018-01-13T01:56:34.848Z,-74
2018-01-13T01:57:34.617Z,-75
2018-01-13T01:58:34.689Z,-74
2018-01-13T01:59:35.219Z,-80
2018-01-13T02:00:34.632Z,-80
2018-01-13T02:01:35.006Z,-82
2018-01-13T02:02:34.076Z,-81
2018-01-13T02:03:34.335Z,-81
2018-01-13T02:04:34.404Z,-81
2018-01-13T02:05:34.747Z,-82
2018-01-13T02:06:33.967Z,-81
2018-01-13T02:07:34.283Z,-82
2018-01-13T02:08:34.670Z,-82
2018-01-13T02:09:35.583Z,-82
2018-01-13T02:10:34.850Z,-81
2018-01-13T02:11:33.710Z,-81
2018-01-13T02:12:34.159Z,-81
2018-01-13T02:13:34.532Z,-82
2018-01-13T02:14:35.135Z,-82
2018-01-13T02:15:34.565Z,-82
2018-01-13T02:16:34.914Z,-81
2018-01-13T02:17:34.464Z,-81
2018-01-13T02:18:34.982Z,-75
2018-01-13T02:19:34.177Z,-75
2018-01-13T02:20:34.676Z,-75
2018-01-13T02:21:34.701Z,-75
2018-01-13T02:22:34.971Z,-79
2018-01-13T02:23:34.159Z,-80
2018-01-13T02:24:34.753Z,-81
2018-01-13T02:25:34.296Z,-81
2018-01-13T02:26:35.552Z,-81
2018-01-13T02:27:34.873Z,-82
2018-01-13T02:28:34.027Z,-81
2018-01-13T02:29:34.245Z,-81
2018-01-13T02:30:33.999Z,-81
2018-01-13T02:31:34.504Z,-81
2018-01-13T02:32:34.938Z,-82
2018-01-13T02:33:34.354Z,-76
2018-01-13T02:34:35.312Z,-75
2018-01-13T02:35:34.742Z,-74
2018-01-13T02:36:34.948Z,-75
2018-01-13T02:37:34.491Z,-76
2018-01-13T02:38:34.745Z,-75
2018-01-13T02:39:35.149Z,-76
2018-01-13T02:40:34.542Z,-76
2018-01-13T02:41:35.251Z,-75
2018-01-13T02:42:34.763Z,-76
2018-01-13T02:43:34.614Z,-74
2018-01-13T02:44:34.029Z,-74
2018-01-13T02:45:34.493Z,-74
2018-01-13T02:46:34.117Z,-73
2018-01-13T02:47:34.743Z,-74
2018-01-13T02:48:34.169Z,-76
2018-01-13T02:49:34.066Z,-75
2018-01-13T02:50:34.053Z,-75
2018-01-13T02:52:32.763Z,-75
2018-01-13T02:53:33.958Z,-76
2018-01-13T02:54:34.479Z,-77
2018-01-13T02:55:34.276Z,-76
2018-01-13T02:56:32.441Z,-76
2018-01-13T02:57:34.010Z,-75
2018-01-13T02:58:34.345Z,-75
2018-01-13T02:59:32.562Z,-76
2018-01-13T03:00:33.888Z,-76
2018-01-13T03:01:34.205Z,-75
2018-01-13T03:02:34.240Z,-75
2018-01-13T03:03:34.073Z,-75
2018-01-13T03:04:34.019Z,-75
2018-01-13T03:05:34.896Z,-75
2018-01-13T03:06:34.248Z,-76
2018-01-13T03:07:32.789Z,-76
2018-01-13T03:08:32.802Z,-76
2018-01-13T03:09:32.693Z,-75
2018-01-13T03:10:34.205Z,-75
2018-01-13T03:11:34.788Z,-76
2018-01-13T03:12:34.334Z,-76
2018-01-13T03:13:32.723Z,-75
2018-01-13T03:14:34.043Z,-75
2018-01-13T03:15:34.488Z,-76
2018-01-13T03:16:34.112Z,-75
2018-01-13T03:17:34.887Z,-75
2018-01-13T03:20:34.023Z,-77
2018-01-13T03:21:34.054Z,-76
2018-01-13T03:22:34.455Z,-75
2018-01-13T03:23:34.595Z,-76
2018-01-13T03:24:32.698Z,-75
2018-01-13T03:25:34.142Z,-76
2018-01-13T03:26:34.283Z,-76
2018-01-13T03:27:34.530Z,-76
2018-01-13T03:28:33.954Z,-76
2018-01-13T03:29:34.779Z,-76
2018-01-13T03:30:33.734Z,-76
2018-01-13T03:31:34.334Z,-75
2018-01-13T03:32:34.441Z,-75
2018-01-13T03:33:33.936Z,-75
2018-01-13T03:34:34.180Z,-75
2018-01-13T03:35:34.130Z,-81
2018-01-13T03:36:34.432Z,-75
2018-01-13T03:37:32.822Z,-75
2018-01-13T03:38:32.547Z,-75
2018-01-13T03:39:32.713Z,-75
2018-01-13T03:40:34.217Z,-81
2018-01-13T03:41:34.380Z,-81
2018-01-13T03:42:32.742Z,-81
2018-01-13T03:43:34.003Z,-81
2018-01-13T03:44:34.314Z,-81
2018-01-13T03:45:34.738Z,-81
2018-01-13T03:46:34.972Z,-75
2018-01-13T03:47:34.332Z,-75
2018-01-13T03:48:34.791Z,-81
2018-01-13T03:49:34.350Z,-81
2018-01-13T03:50:34.695Z,-81
2018-01-13T03:51:35.315Z,-81
2018-01-13T03:52:34.809Z,-81
2018-01-13T03:53:34.992Z,-81
2018-01-13T03:54:34.468Z,-77
2018-01-13T03:55:34.728Z,-76
2018-01-13T03:56:34.950Z,-76
2018-01-13T03:57:34.206Z,-75
2018-01-13T03:58:34.453Z,-75
2018-01-13T03:59:34.804Z,-75
2018-01-13T04:00:34.277Z,-75
2018-01-13T04:01:34.746Z,-75
2018-01-13T04:02:35.197Z,-76
2018-01-13T04:03:34.542Z,-82
2018-01-13T04:04:34.738Z,-81
2018-01-13T04:05:35.191Z,-82
2018-01-13T04:06:34.711Z,-76
2018-01-13T04:07:34.818Z,-81
2018-01-13T04:08:34.391Z,-81
2018-01-13T04:09:34.698Z,-82
2018-01-13T04:10:35.240Z,-81
2018-01-13T04:11:34.849Z,-82
2018-01-13T04:12:34.433Z,-82
2018-01-13T04:13:35.313Z,-76
2018-01-13T04:14:34.667Z,-74
2018-01-13T04:15:34.113Z,-74
2018-01-13T04:16:34.572Z,-74
2018-01-13T04:17:33.925Z,-74
2018-01-13T04:18:34.061Z,-74
2018-01-13T04:19:34.551Z,-74
2018-01-13T04:20:32.813Z,-73
2018-01-13T04:21:34.807Z,-79
2018-01-13T04:22:34.328Z,-79
2018-01-13T04:23:35.086Z,-79
2018-01-13T04:24:34.422Z,-79
2018-01-13T04:25:34.825Z,-74
2018-01-13T04:26:34.177Z,-73
2018-01-13T04:27:34.058Z,-74
2018-01-13T04:28:34.102Z,-74
2018-01-13T04:29:34.400Z,-74
2018-01-13T04:30:34.935Z,-76
2018-01-13T04:31:34.149Z,-76
2018-01-13T04:32:34.409Z,-76
2018-01-13T04:33:34.021Z,-76
2018-01-13T04:34:34.010Z,-76
2018-01-13T04:35:34.393Z,-76
2018-01-13T04:36:34.544Z,-75
2018-01-13T04:37:33.961Z,-76
2018-01-13T04:38:34.223Z,-76
2018-01-13T04:39:34.656Z,-75
2018-01-13T04:40:33.930Z,-75
2018-01-13T04:41:34.271Z,-82
2018-01-13T04:42:34.739Z,-82
2018-01-13T04:43:34.063Z,-81
2018-01-13T04:44:34.237Z,-82
2018-01-13T04:45:32.507Z,-81
2018-01-13T04:46:32.692Z,-81
2018-01-13T04:47:34.050Z,-82
2018-01-13T04:48:34.421Z,-81
2018-01-13T04:49:32.571Z,-81
2018-01-13T04:50:32.763Z,-82
2018-01-13T04:51:32.841Z,-82
2018-01-13T04:52:32.562Z,-81
2018-01-13T04:53:34.049Z,-82
2018-01-13T04:54:32.667Z,-81
2018-01-13T04:55:32.736Z,-81
2018-01-13T04:56:32.835Z,-80
2018-01-13T04:57:34.134Z,-81
2018-01-13T05:01:34.576Z,-81
2018-01-13T05:02:32.760Z,-80
2018-01-13T05:03:34.173Z,-80
2018-01-13T05:04:32.736Z,-80
2018-01-13T05:05:34.189Z,-81
2018-01-13T05:06:32.505Z,-81
2018-01-13T05:07:32.859Z,-81
2018-01-13T05:08:32.733Z,-80
2018-01-13T05:09:34.519Z,-81
2018-01-13T05:10:32.822Z,-82
2018-01-13T05:11:34.134Z,-76
2018-01-13T05:12:32.281Z,-76
2018-01-13T05:13:32.645Z,-76
2018-01-13T05:14:34.044Z,-76
2018-01-13T05:15:32.797Z,-76
2018-01-13T05:16:34.624Z,-76
2018-01-13T05:17:34.056Z,-81
2018-01-13T05:18:34.547Z,-81
2018-01-13T05:19:32.713Z,-81
2018-01-13T05:20:34.180Z,-81
2018-01-13T05:21:34.366Z,-81
2018-01-13T05:22:32.593Z,-81
2018-01-13T05:23:33.959Z,-81
2018-01-13T05:24:33.828Z,-81
2018-01-13T05:25:34.846Z,-81
2018-01-13T05:26:34.298Z,-81
2018-01-13T05:27:32.485Z,-76
2018-01-13T05:28:32.789Z,-75
2018-01-13T05:29:34.074Z,-76
2018-01-13T05:30:34.543Z,-76
2018-01-13T05:31:32.769Z,-75
2018-01-13T05:32:34.202Z,-76
2018-01-13T05:33:35.189Z,-81
2018-01-13T05:34:35.086Z,-80
2018-01-13T05:35:34.538Z,-80
2018-01-13T05:36:34.089Z,-79
2018-01-13T05:37:32.727Z,-82
2018-01-13T05:38:34.191Z,-81
2018-01-13T05:39:34.539Z,-82
2018-01-13T05:40:35.010Z,-82
2018-01-13T05:41:34.502Z,-81
2018-01-13T05:42:32.913Z,-75
2018-01-13T05:43:34.084Z,-76
2018-01-13T05:44:34.436Z,-80
2018-01-13T05:45:32.880Z,-80
2018-01-13T05:46:48.093Z,-81
2018-01-13T05:47:34.649Z,-81
2018-01-13T05:48:32.846Z,-76
2018-01-13T05:49:34.534Z,-76
2018-01-13T05:50:34.062Z,-76
2018-01-13T05:51:34.374Z,-76
2018-01-13T05:52:34.644Z,-76
2018-01-13T05:53:34.293Z,-76
2018-01-13T05:54:35.114Z,-74
2018-01-13T05:55:34.577Z,-75
2018-01-13T05:56:32.893Z,-74
2018-01-13T05:57:32.909Z,-74
2018-01-13T05:58:35.063Z,-74
2018-01-13T05:59:34.486Z,-73
2018-01-13T06:00:34.112Z,-76
2018-01-13T06:01:34.630Z,-76
2018-01-13T06:02:34.075Z,-76
2018-01-13T06:03:34.569Z,-76
2018-01-13T06:04:32.678Z,-75
2018-01-13T06:05:34.159Z,-75
2018-01-13T06:06:34.181Z,-75
2018-01-13T06:07:34.676Z,-76
2018-01-13T06:08:34.849Z,-76
2018-01-13T06:09:34.321Z,-76
2018-01-13T06:10:34.683Z,-75
2018-01-13T06:11:34.214Z,-76
2018-01-13T06:12:34.563Z,-73
2018-01-13T06:13:34.860Z,-75
2018-01-13T06:14:34.386Z,-76
2018-01-13T06:15:34.820Z,-76
2018-01-13T06:16:32.893Z,-81
2018-01-13T06:17:34.843Z,-81
2018-01-13T06:18:33.894Z,-81
2018-01-13T06:19:35.116Z,-81
2018-01-13T06:20:34.608Z,-76
2018-01-13T06:21:34.090Z,-76
2018-01-13T06:22:34.370Z,-75
2018-01-13T06:23:34.651Z,-76
2018-01-13T06:24:34.065Z,-81
2018-01-13T06:26:59.170Z,-79
2018-01-13T06:27:34.706Z,-79
2018-01-13T06:28:34.260Z,-79
2018-01-13T06:29:34.849Z,-79
2018-01-13T06:30:34.192Z,-79
2018-01-13T06:31:35.147Z,-79
2018-01-13T06:32:34.841Z,-79
2018-01-13T06:33:34.364Z,-79
2018-01-13T06:34:34.600Z,-74
2018-01-13T06:35:34.135Z,-73
2018-01-13T06:36:33.465Z,-73
2018-01-13T06:37:33.557Z,-73
2018-01-13T06:38:34.015Z,-74
2018-01-13T06:39:34.398Z,-74
2018-01-13T06:40:34.303Z,-74
2018-01-13T06:41:33.944Z,-74
2018-01-13T06:42:34.704Z,-74
2018-01-13T06:43:34.319Z,-74
2018-01-13T06:44:35.205Z,-74
2018-01-13T06:45:35.037Z,-79
2018-01-13T06:46:34.390Z,-80
2018-01-13T06:47:33.753Z,-79
2018-01-13T06:48:34.530Z,-80
2018-01-13T06:49:34.024Z,-80
2018-01-13T06:50:34.472Z,-80
2018-01-13T06:51:59.538Z,-80
2018-01-13T06:52:33.739Z,-79
2018-01-13T06:53:33.939Z,-79
2018-01-13T06:54:34.185Z,-79
2018-01-13T06:55:33.803Z,-80
2018-01-13T06:56:34.090Z,-80
2018-01-13T06:57:33.489Z,-80
2018-01-13T06:58:33.966Z,-80
2018-01-13T06:59:34.368Z,-81
2018-01-13T07:00:33.729Z,-80
2018-01-13T07:01:34.135Z,-80
2018-01-13T07:02:34.538Z,-80
2018-01-13T07:03:33.983Z,-73
2018-01-13T07:04:34.538Z,-73
2018-01-13T07:05:33.924Z,-73
2018-01-13T07:06:34.082Z,-73
2018-01-13T07:07:33.587Z,-73
2018-01-13T07:08:34.123Z,-73
2018-01-13T07:09:33.676Z,-73
2018-01-13T07:10:34.440Z,-73
2018-01-13T07:11:33.721Z,-73
2018-01-13T07:12:34.148Z,-73
2018-01-13T07:13:33.538Z,-73
2018-01-13T07:14:34.162Z,-73
2018-01-13T07:15:33.513Z,-73
2018-01-13T07:16:34.078Z,-73
2018-01-13T07:17:33.616Z,-73
2018-01-13T07:18:34.101Z,-73
2018-01-13T07:19:34.530Z,-73
2018-01-13T07:20:35.009Z,-73
2018-01-13T07:21:33.433Z,-73
2018-01-13T07:22:32.762Z,-73
2018-01-13T07:23:32.981Z,-73
2018-01-13T07:24:32.487Z,-73
2018-01-13T07:25:32.973Z,-73
2018-01-13T07:26:33.241Z,-73
2018-01-13T07:27:32.302Z,-73
2018-01-13T07:28:32.418Z,-74
2018-01-13T07:29:32.881Z,-73
2018-01-13T07:30:33.027Z,-75
2018-01-13T07:31:33.384Z,-75
2018-01-13T07:32:32.787Z,-76
2018-01-13T07:33:32.918Z,-74
2018-01-13T07:34:33.211Z,-74
2018-01-13T07:35:32.769Z,-74
2018-01-13T07:36:33.300Z,-73
2018-01-13T07:37:32.820Z,-73
2018-01-13T07:38:33.100Z,-80
2018-01-13T07:39:33.400Z,-80
2018-01-13T07:40:32.730Z,-80
2018-01-13T07:41:32.178Z,-80
2018-01-13T07:42:32.470Z,-80
2018-01-13T07:43:32.928Z,-80
2018-01-13T07:44:33.362Z,-80
2018-01-13T07:45:32.614Z,-80
2018-01-13T07:46:32.245Z,-83
2018-01-13T07:47:32.764Z,-83
2018-01-13T07:48:33.223Z,-76
2018-01-13T07:49:33.569Z,-76
2018-01-13T07:50:32.705Z,-76
2018-01-13T07:51:33.228Z,-82
2018-01-13T07:52:33.345Z,-81
2018-01-13T07:53:32.550Z,-81
2018-01-13T07:54:32.983Z,-81
2018-01-13T07:55:33.423Z,-80
2018-01-13T07:56:32.826Z,-81
2018-01-13T07:59:55.430Z,-82
2018-01-13T08:00:32.812Z,-82
2018-01-13T08:01:33.476Z,-82
2018-01-13T08:02:32.766Z,-82
2018-01-13T08:03:33.105Z,-83
2018-01-13T08:04:33.681Z,-83
2018-01-13T08:05:32.913Z,-83
2018-01-13T08:06:33.435Z,-81
2018-01-13T08:07:32.875Z,-81
2018-01-13T08:08:33.272Z,-81
2018-01-13T08:09:33.492Z,-83
2018-01-13T08:10:32.602Z,-82
2018-01-13T08:11:32.876Z,-83
2018-01-13T08:12:33.256Z,-83
2018-01-13T08:13:33.557Z,-82
2018-01-13T08:14:32.994Z,-81
2018-01-13T08:15:33.228Z,-83
2018-01-13T08:16:33.488Z,-83
2018-01-13T08:17:32.748Z,-83
2018-01-13T08:18:33.589Z,-83
2018-01-13T08:19:33.062Z,-83
2018-01-13T08:20:33.476Z,-83
2018-01-13T08:21:33.788Z,-82
2018-01-13T08:22:33.212Z,-81
2018-01-13T08:23:33.615Z,-81
2018-01-13T08:24:32.948Z,-80
2018-01-13T08:25:33.448Z,-83
2018-01-13T08:26:33.947Z,-83
2018-01-13T08:27:33.322Z,-83
2018-01-13T08:28:33.653Z,-83
2018-01-13T08:29:33.139Z,-83
2018-01-13T08:30:33.427Z,-73
2018-01-13T08:31:33.832Z,-73
2018-01-13T08:32:33.241Z,-74
2018-01-13T08:33:33.491Z,-76
2018-01-13T08:34:34.045Z,-76
2018-01-13T08:35:33.191Z,-75
2018-01-13T08:36:33.404Z,-76
2018-01-13T08:37:33.941Z,-76
2018-01-13T08:38:33.868Z,-76
2018-01-13T08:39:33.293Z,-75
2018-01-13T08:40:33.716Z,-76
2018-01-13T08:41:33.017Z,-76
2018-01-13T08:42:33.394Z,-83
2018-01-13T08:43:33.925Z,-83
2018-01-13T08:44:33.374Z,-83
2018-01-13T08:45:33.937Z,-83
2018-01-13T08:46:33.155Z,-83
2018-01-13T08:47:33.713Z,-83
2018-01-13T08:48:32.913Z,-74
2018-01-13T08:49:33.112Z,-75
2018-01-13T08:50:33.574Z,-75
2018-01-13T08:51:33.462Z,-75
2018-01-13T08:52:32.749Z,-75
2018-01-13T08:53:33.230Z,-75
2018-01-13T08:54:32.697Z,-75
2018-01-13T08:55:33.128Z,-74
2018-01-13T08:56:33.521Z,-74
2018-01-13T08:57:32.835Z,-74
2018-01-13T08:58:33.489Z,-75
2018-01-13T08:59:33.052Z,-75
2018-01-13T09:00:33.517Z,-75
2018-01-13T09:01:32.840Z,-75
2018-01-13T09:02:33.175Z,-73
2018-01-13T09:03:33.850Z,-74
2018-01-13T09:04:33.721Z,-74
2018-01-13T09:05:33.237Z,-82
2018-01-13T09:06:32.896Z,-82
2018-01-13T09:07:33.367Z,-84
2018-01-13T09:08:33.071Z,-83
2018-01-13T09:09:33.768Z,-84
2018-01-13T09:10:33.351Z,-83
2018-01-13T09:11:32.958Z,-83
2018-01-13T09:12:33.489Z,-84
2018-01-13T09:13:33.763Z,-83
2018-01-13T09:14:33.307Z,-82
2018-01-13T09:15:33.296Z,-84
2018-01-13T09:16:32.801Z,-84
2018-01-13T09:17:33.449Z,-84
2018-01-13T09:18:33.724Z,-83
2018-01-13T09:19:33.349Z,-83
2018-01-13T09:20:33.728Z,-83
2018-01-13T09:21:33.243Z,-84
2018-01-13T09:22:33.880Z,-83
2018-01-13T09:23:33.456Z,-84
2018-01-13T09:24:32.867Z,-83
2018-01-13T09:25:33.600Z,-83
2018-01-13T09:26:33.225Z,-82
2018-01-13T09:27:34.435Z,-83
2018-01-13T09:28:33.769Z,-83
2018-01-13T09:29:33.380Z,-80
2018-01-13T09:30:34.051Z,-83
2018-01-13T09:31:34.209Z,-82
2018-01-13T09:32:33.947Z,-83
2018-01-13T09:33:33.436Z,-83
2018-01-13T09:34:33.976Z,-82
2018-01-13T09:35:33.658Z,-82
2018-01-13T09:36:33.336Z,-83
2018-01-13T09:37:33.906Z,-83
2018-01-13T09:38:33.520Z,-84
2018-01-13T09:39:33.155Z,-84
2018-01-13T09:40:33.762Z,-84
2018-01-13T09:41:33.121Z,-83
2018-01-13T09:42:33.581Z,-83
2018-01-13T09:43:32.964Z,-84
2018-01-13T09:44:33.357Z,-84
2018-01-13T09:45:33.859Z,-84
2018-01-13T09:46:33.506Z,-84
2018-01-13T09:47:33.344Z,-83
2018-01-13T09:48:33.871Z,-83
2018-01-13T09:49:33.465Z,-83
2018-01-13T09:50:32.958Z,-83
2018-01-13T09:51:33.688Z,-76
2018-01-13T09:52:33.294Z,-75
2018-01-13T09:53:33.958Z,-77
2018-01-13T09:54:33.212Z,-77
2018-01-13T09:55:33.666Z,-77
2018-01-13T09:56:33.225Z,-77
2018-01-13T09:57:38.371Z,-75
2018-01-13T09:58:33.572Z,-75
2018-01-13T09:59:37.926Z,-75
2018-01-13T10:00:34.202Z,-75
2018-01-13T10:01:33.643Z,-77
2018-01-13T10:03:33.855Z,-77
2018-01-13T10:04:33.566Z,-77
2018-01-13T10:05:32.967Z,-78
2018-01-13T10:06:33.082Z,-78
2018-01-13T10:07:33.627Z,-77
2018-01-13T10:08:33.280Z,-77
2018-01-13T10:09:33.755Z,-76
2018-01-13T10:10:33.202Z,-74
2018-01-13T10:11:33.374Z,-74
2018-01-13T10:12:32.781Z,-73
2018-01-13T10:13:33.018Z,-74
2018-01-13T10:14:33.418Z,-74
2018-01-13T10:15:32.673Z,-74
2018-01-13T10:16:33.066Z,-74
2018-01-13T10:17:33.441Z,-73
2018-01-13T10:18:33.029Z,-74
2018-01-13T10:19:33.563Z,-74
2018-01-13T10:20:33.040Z,-73
2018-01-13T10:21:33.208Z,-75
2018-01-13T10:22:33.400Z,-74
2018-01-13T10:23:32.739Z,-74
2018-01-13T10:24:33.767Z,-75
2018-01-13T10:25:33.120Z,-74
2018-01-13T10:26:33.527Z,-74
2018-01-13T10:27:32.815Z,-73
2018-01-13T10:28:32.992Z,-74
2018-01-13T10:29:33.735Z,-74
2018-01-13T10:30:33.309Z,-75
2018-01-13T10:31:40.678Z,-73
2018-01-13T10:32:32.942Z,-76
2018-01-13T10:33:34.537Z,-73
2018-01-13T10:34:33.020Z,-74
2018-01-13T10:35:36.137Z,-74
2018-01-13T10:36:34.489Z,-74
2018-01-13T10:37:32.633Z,-75
2018-01-13T10:38:33.033Z,-74
2018-01-13T10:39:33.971Z,-74
2018-01-13T10:40:33.896Z,-74
2018-01-13T10:41:41.365Z,-73
2018-01-13T10:42:32.548Z,-73
2018-01-13T10:43:32.615Z,-73
2018-01-13T10:44:32.749Z,-75
2018-01-13T10:45:32.947Z,-75
2018-01-13T10:46:33.293Z,-75
2018-01-13T10:47:32.351Z,-75
2018-01-13T10:48:32.836Z,-75
2018-01-13T10:49:33.277Z,-76
2018-01-13T10:50:32.766Z,-75
2018-01-13T10:51:33.069Z,-75
2018-01-13T10:52:33.672Z,-75
2018-01-13T10:53:33.167Z,-75
2018-01-13T10:54:33.308Z,-74
2018-01-13T10:55:33.672Z,-73
2018-01-13T10:56:32.842Z,-75
2018-01-13T10:57:33.321Z,-75
2018-01-13T10:58:33.647Z,-75
2018-01-13T10:59:32.917Z,-75
2018-01-13T11:00:33.177Z,-75
2018-01-13T11:01:33.750Z,-75
2018-01-13T11:04:33.547Z,-77
2018-01-13T11:05:32.855Z,-74
2018-01-13T11:06:33.746Z,-77
2018-01-13T11:07:33.093Z,-78
2018-01-13T11:08:33.627Z,-78
2018-01-13T11:09:32.792Z,-78
2018-01-13T11:10:33.085Z,-78
2018-01-13T11:11:33.396Z,-79
2018-01-13T11:12:32.655Z,-80
2018-01-13T11:13:33.451Z,-78
2018-01-13T11:14:32.923Z,-75
2018-01-13T11:15:33.221Z,-80
2018-01-13T11:16:33.509Z,-76
2018-01-13T11:17:32.763Z,-78
2018-01-13T11:18:32.858Z,-77
2018-01-13T11:19:33.249Z,-78
2018-01-13T11:20:33.460Z,-77
2018-01-13T11:21:32.672Z,-78
2018-01-13T11:22:33.208Z,-78
2018-01-13T11:23:33.807Z,-79
2018-01-13T11:24:33.293Z,-79
2018-01-13T11:25:32.816Z,-79
2018-01-13T11:26:33.062Z,-78
2018-01-13T11:27:33.455Z,-79
2018-01-13T11:28:32.991Z,-79
2018-01-13T11:29:33.833Z,-78
2018-01-13T11:30:33.220Z,-78
2018-01-13T11:31:33.625Z,-78
2018-01-13T11:32:33.040Z,-80
2018-01-13T11:33:33.578Z,-79
2018-01-13T11:34:33.015Z,-80
2018-01-13T11:35:33.484Z,-79
2018-01-13T11:36:32.716Z,-79
2018-01-13T11:37:33.077Z,-79
2018-01-13T11:38:33.504Z,-79
2018-01-13T11:39:32.991Z,-79
2018-01-13T11:40:33.533Z,-78
2018-01-13T11:41:33.127Z,-80
2018-01-13T11:42:33.685Z,-79
2018-01-13T11:43:33.532Z,-79
2018-01-13T11:44:32.779Z,-78
2018-01-13T11:45:33.673Z,-80
2018-01-13T11:46:33.776Z,-80
2018-01-13T11:47:32.930Z,-80
2018-01-13T11:48:33.278Z,-80
2018-01-13T11:49:33.783Z,-80
2018-01-13T11:50:33.267Z,-79
2018-01-13T11:51:33.557Z,-78
2018-01-13T11:52:33.066Z,-81
2018-01-13T11:53:33.376Z,-80
2018-01-13T11:54:33.794Z,-80
2018-01-13T11:55:33.220Z,-80
2018-01-13T11:56:33.740Z,-80
2018-01-13T11:57:33.242Z,-80
2018-01-13T11:58:33.847Z,-81
2018-01-13T11:59:33.993Z,-80
2018-01-13T12:00:33.590Z,-80
2018-01-13T12:01:33.265Z,-80
2018-01-13T12:02:34.014Z,-80
2018-01-13T12:03:33.639Z,-80
2018-01-13T12:04:33.311Z,-79
2018-01-13T12:05:33.821Z,-79
2018-01-13T12:06:33.260Z,-79
2018-01-13T12:07:33.711Z,-79
2018-01-13T12:08:33.408Z,-79
2018-01-13T12:09:32.826Z,-79
2018-01-13T12:10:32.995Z,-79
2018-01-13T12:11:33.927Z,-80
2018-01-13T12:12:33.330Z,-80
2018-01-13T12:13:32.611Z,-80
2018-01-13T12:14:33.607Z,-80
2018-01-13T12:15:33.049Z,-80
2018-01-13T12:16:33.305Z,-80
2018-01-13T12:17:32.566Z,-79
2018-01-13T12:18:32.844Z,-79
2018-01-13T12:19:33.380Z,-79
2018-01-13T12:20:32.900Z,-78
2018-01-13T12:21:33.393Z,-78
2018-01-13T12:22:32.708Z,-77
2018-01-13T12:23:33.781Z,-76
2018-01-13T12:24:32.991Z,-76
2018-01-13T12:25:33.467Z,-77
2018-01-13T12:26:32.799Z,-77
2018-01-13T12:27:33.151Z,-77
2018-01-13T12:28:33.474Z,-76
2018-01-13T12:29:32.968Z,-77
2018-01-13T12:30:33.555Z,-77
2018-01-13T12:31:32.932Z,-77
2018-01-13T12:32:33.448Z,-77
2018-01-13T12:33:32.629Z,-77
2018-01-13T12:34:32.995Z,-77
2018-01-13T12:35:33.383Z,-77
2018-01-13T12:36:33.968Z,-76
2018-01-13T12:37:33.231Z,-77
2018-01-13T12:38:33.866Z,-77
2018-01-13T12:39:33.310Z,-76
2018-01-13T12:40:32.881Z,-75
2018-01-13T12:41:33.149Z,-76
2018-01-13T12:42:33.792Z,-76
2018-01-13T12:43:33.331Z,-75
2018-01-13T12:44:33.975Z,-75
2018-01-13T12:45:33.205Z,-75
2018-01-13T12:46:33.525Z,-76
2018-01-13T12:47:32.764Z,-76
2018-01-13T12:48:33.012Z,-75
2018-01-13T12:49:33.428Z,-77
2018-01-13T12:50:33.461Z,-76
2018-01-13T12:51:33.198Z,-77
2018-01-13T12:52:33.587Z,-75
2018-01-13T12:53:32.753Z,-75
2018-01-13T12:54:33.190Z,-75
2018-01-13T12:55:33.597Z,-75
2018-01-13T12:56:33.003Z,-74
2018-01-13T12:57:33.422Z,-74
2018-01-13T12:58:32.992Z,-79
2018-01-13T12:59:33.709Z,-74
2018-01-13T13:00:33.122Z,-74
2018-01-13T13:01:32.617Z,-74
2018-01-13T13:02:33.222Z,-74
2018-01-13T13:03:32.791Z,-74
2018-01-13T13:04:33.307Z,-74
2018-01-13T13:05:32.987Z,-74
2018-01-13T13:06:33.362Z,-74
2018-01-13T13:07:32.988Z,-74
2018-01-13T13:08:33.526Z,-79
2018-01-13T13:09:32.751Z,-79
2018-01-13T13:10:33.050Z,-79
2018-01-13T13:11:33.405Z,-78
2018-01-13T13:12:33.002Z,-78
2018-01-13T13:13:33.363Z,-78
2018-01-13T13:14:32.683Z,-79
2018-01-13T13:15:33.163Z,-79
2018-01-13T13:16:33.582Z,-78
2018-01-13T13:17:32.867Z,-79
2018-01-13T13:18:33.160Z,-79
2018-01-13T13:19:33.635Z,-79
2018-01-13T13:20:33.063Z,-79
2018-01-13T13:21:33.463Z,-81
2018-01-13T13:22:32.724Z,-81
2018-01-13T13:23:33.257Z,-80
2018-01-13T13:24:33.494Z,-80
2018-01-13T13:25:33.820Z,-80
2018-01-13T13:26:34.211Z,-81
2018-01-13T13:27:33.488Z,-81
2018-01-13T13:28:33.867Z,-81
2018-01-13T13:29:34.322Z,-81
2018-01-13T13:30:33.883Z,-81
2018-01-13T13:31:34.247Z,-80
2018-01-13T13:32:33.776Z,-80
2018-01-13T13:33:34.056Z,-80
2018-01-13T13:34:33.714Z,-79
2018-01-13T13:35:34.134Z,-81
2018-01-13T13:36:33.484Z,-81
2018-01-13T13:37:33.915Z,-80
2018-01-13T13:38:33.395Z,-80
2018-01-13T13:39:33.561Z,-81
2018-01-13T13:40:33.797Z,-80
2018-01-13T13:41:34.240Z,-79
2018-01-13T13:42:33.455Z,-80
2018-01-13T13:43:33.843Z,-79
2018-01-13T13:44:34.067Z,-78
2018-01-13T13:45:33.513Z,-80
2018-01-13T13:46:33.621Z,-79
2018-01-13T13:47:34.107Z,-80
2018-01-13T13:48:33.494Z,-79
2018-01-13T13:49:33.550Z,-80
2018-01-13T13:50:33.988Z,-79
2018-01-13T13:51:33.482Z,-80
2018-01-13T13:52:33.642Z,-78
2018-01-13T13:53:34.067Z,-79
2018-01-13T13:54:33.496Z,-79
2018-01-13T13:55:33.835Z,-80
2018-01-13T13:56:33.509Z,-80
2018-01-13T13:57:33.931Z,-80
2018-01-13T13:58:33.452Z,-80
2018-01-13T13:59:33.589Z,-80
2018-01-13T14:00:34.152Z,-80